Time,TemperatureF,DewpointF,PressureIn,WindDirection,WindDirectionDegrees,WindSpeedMPH,WindSpeedGustMPH,Humidity,HourlyPrecipIn,Conditions,Clouds,dailyrainin,SolarRadiationWatts/m^2,SoftwareType,DateUTC
2013-09-05 00:04:00,62.0,61.0,30.15,East,97,0.0,0.0,95,0.00,,,0.00,0,weatherlink.com 1.10,2013-09-05 05:04:00,
2013-09-05 00:19:00,61.9,61.0,30.16,East,86,2.0,3.0,95,0.00,,,0.00,0,weatherlink.com 1.10,2013-09-05 05:19:00,
2013-09-05 00:34:00,61.7,60.0,30.16,East,98,1.0,1.0,95,0.00,,,0.00,0,weatherlink.com 1.10,2013-09-05 05:34:00,
2013-09-05 00:48:00,61.6,60.0,30.15,East,88,0.0,1.0,95,0.00,,,0.00,0,weatherlink.com 1.10,2013-09-05 05:48:00,
2013-09-05 01:03:00,61.3,60.0,30.15,East,88,0.0,0.0,95,0.00,,,0.00,0,weatherlink.com 1.10,2013-09-05 06:03:00,
2013-09-05 01:18:00,60.5,59.0,30.16,East,88,0.0,0.0,95,0.00,,,0.00,0,weatherlink.com 1.10,2013-09-05 06:18:00,
2013-09-05 01:33:00,60.2,59.0,30.16,East,88,0.0,0.0,95,0.00,,,0.00,0,weatherlink.com 1.10,2013-09-05 06:33:00,
2013-09-05 01:48:00,59.9,59.0,30.17,East,88,0.0,1.0,96,0.00,,,0.00,0,weatherlink.com 1.10,2013-09-05 06:48:00,
2013-09-05 02:03:00,60.6,60.0,30.18,ENE,74,0.0,3.0,97,0.00,,,0.00,0,weatherlink.com 1.10,2013-09-05 07:03:00,
2013-09-05 02:18:00,61.1,60.0,30.18,ENE,76,0.0,2.0,97,0.00,,,0.00,0,weatherlink.com 1.10,2013-09-05 07:18:00,
2013-09-05 02:33:00,61.2,60.0,30.18,ENE,76,0.0,1.0,97,0.00,,,0.00,0,weatherlink.com 1.10,2013-09-05 07:33:00,
2013-09-05 02:48:00,61.3,61.0,30.18,ENE,76,0.0,0.0,97,0.00,,,0.00,0,weatherlink.com 1.10,2013-09-05 07:48:00,
2013-09-05 03:03:00,61.1,60.0,30.19,ENE,65,0.0,1.0,96,0.00,,,0.00,0,weatherlink.com 1.10,2013-09-05 08:03:00,
2013-09-05 03:18:00,60.7,60.0,30.19,NE,39,1.0,2.0,96,0.00,,,0.00,0,weatherlink.com 1.10,2013-09-05 08:18:00,
2013-09-05 03:33:00,60.3,59.0,30.19,NE,40,1.0,2.0,96,0.00,,,0.00,0,weatherlink.com 1.10,2013-09-05 08:33:00,
2013-09-05 03:48:00,59.7,59.0,30.20,NE,40,0.0,1.0,96,0.00,,,0.00,0,weatherlink.com 1.10,2013-09-05 08:48:00,
2013-09-05 04:04:00,59.0,58.0,30.20,NE,40,0.0,2.0,96,0.00,,,0.00,0,weatherlink.com 1.10,2013-09-05 09:04:00,
2013-09-05 04:19:00,58.3,57.0,30.21,NE,40,0.0,1.0,96,0.00,,,0.00,0,weatherlink.com 1.10,2013-09-05 09:19:00,
2013-09-05 04:34:00,57.8,57.0,30.21,NE,40,0.0,2.0,96,0.00,,,0.00,0,weatherlink.com 1.10,2013-09-05 09:34:00,
2013-09-05 04:49:00,57.8,57.0,30.22,NE,41,1.0,1.0,97,0.00,,,0.00,0,weatherlink.com 1.10,2013-09-05 09:49:00,
2013-09-05 05:04:00,57.8,57.0,30.22,NE,42,1.0,3.0,97,0.00,,,0.00,0,weatherlink.com 1.10,2013-09-05 10:04:00,
2013-09-05 05:19:00,57.5,56.0,30.22,NE,51,0.0,3.0,96,0.00,,,0.00,0,weatherlink.com 1.10,2013-09-05 10:19:00,
2013-09-05 05:34:00,56.8,55.0,30.23,NE,46,0.0,3.0,95,0.00,,,0.00,0,weatherlink.com 1.10,2013-09-05 10:34:00,
2013-09-05 05:49:00,56.0,55.0,30.23,ENE,63,1.0,3.0,95,0.00,,,0.00,0,weatherlink.com 1.10,2013-09-05 10:49:00,
2013-09-05 06:04:00,55.3,54.0,30.24,NE,54,0.0,2.0,95,0.00,,,0.00,0,weatherlink.com 1.10,2013-09-05 11:04:00,
2013-09-05 06:19:00,54.6,53.0,30.24,NE,55,0.0,2.0,95,0.00,,,0.00,0,weatherlink.com 1.10,2013-09-05 11:19:00,
2013-09-05 06:34:00,54.3,53.0,30.25,ENE,70,1.0,2.0,95,0.00,,,0.00,5,weatherlink.com 1.10,2013-09-05 11:34:00,
2013-09-05 06:49:00,54.0,53.0,30.25,ENE,70,0.0,2.0,95,0.00,,,0.00,12,weatherlink.com 1.10,2013-09-05 11:49:00,
2013-09-05 07:04:00,53.9,53.0,30.26,ENE,71,0.0,1.0,95,0.00,,,0.00,28,weatherlink.com 1.10,2013-09-05 12:04:00,
2013-09-05 07:19:00,55.1,54.0,30.26,ENE,69,2.0,2.0,94,0.00,,,0.00,44,weatherlink.com 1.10,2013-09-05 12:19:00,
2013-09-05 07:34:00,56.6,54.0,30.27,East,79,1.0,4.0,91,0.00,,,0.00,132,weatherlink.com 1.10,2013-09-05 12:34:00,
2013-09-05 07:49:00,58.0,55.0,30.27,East,97,2.0,4.0,88,0.00,,,0.00,113,weatherlink.com 1.10,2013-09-05 12:49:00,
2013-09-05 08:04:00,58.6,55.0,30.28,ENE,69,1.0,3.0,87,0.00,,,0.00,193,weatherlink.com 1.10,2013-09-05 13:04:00,
2013-09-05 08:19:00,60.0,55.0,30.28,ENE,63,4.0,7.0,83,0.00,,,0.00,251,weatherlink.com 1.10,2013-09-05 13:19:00,
2013-09-05 08:34:00,61.6,55.0,30.28,NE,51,2.0,8.0,79,0.00,,,0.00,297,weatherlink.com 1.10,2013-09-05 13:34:00,
2013-09-05 08:49:00,62.5,55.0,30.28,East,88,6.0,9.0,77,0.00,,,0.00,346,weatherlink.com 1.10,2013-09-05 13:49:00,
2013-09-05 09:04:00,63.1,55.0,30.29,East,84,6.0,11.0,75,0.00,,,0.00,385,weatherlink.com 1.10,2013-09-05 14:04:00,
2013-09-05 09:20:00,64.0,55.0,30.29,ENE,78,3.0,10.0,72,0.00,,,0.00,432,weatherlink.com 1.10,2013-09-05 14:20:00,
2013-09-05 09:35:00,64.3,54.0,30.29,East,97,5.0,10.0,70,0.00,,,0.00,473,weatherlink.com 1.10,2013-09-05 14:35:00,
2013-09-05 09:50:00,64.8,55.0,30.29,East,84,5.0,10.0,71,0.00,,,0.00,475,weatherlink.com 1.10,2013-09-05 14:50:00,
2013-09-05 10:05:00,65.6,56.0,30.29,East,80,1.0,8.0,70,0.00,,,0.00,554,weatherlink.com 1.10,2013-09-05 15:05:00,
2013-09-05 10:20:00,66.7,56.0,30.29,East,101,2.0,5.0,69,0.00,,,0.00,592,weatherlink.com 1.10,2013-09-05 15:20:00,
2013-09-05 10:35:00,67.3,55.0,30.29,ENE,64,2.0,8.0,66,0.00,,,0.00,626,weatherlink.com 1.10,2013-09-05 15:35:00,
2013-09-05 10:50:00,66.9,56.0,30.29,NE,56,5.0,9.0,68,0.00,,,0.00,656,weatherlink.com 1.10,2013-09-05 15:50:00,
2013-09-05 11:05:00,67.8,57.0,30.29,ENE,62,3.0,8.0,69,0.00,,,0.00,686,weatherlink.com 1.10,2013-09-05 16:05:00,
2013-09-05 11:20:00,68.5,57.0,30.29,ENE,66,3.0,7.0,66,0.00,,,0.00,708,weatherlink.com 1.10,2013-09-05 16:20:00,
2013-09-05 11:35:00,69.1,57.0,30.29,ENE,57,1.0,8.0,66,0.00,,,0.00,731,weatherlink.com 1.10,2013-09-05 16:35:00,
2013-09-05 11:50:00,69.0,58.0,30.29,East,84,1.0,9.0,67,0.00,,,0.00,751,weatherlink.com 1.10,2013-09-05 16:50:00,
2013-09-05 12:05:00,69.3,57.0,30.29,NE,38,2.0,8.0,65,0.00,,,0.00,768,weatherlink.com 1.10,2013-09-05 17:05:00,
2013-09-05 12:20:00,69.7,58.0,30.29,East,84,3.0,8.0,67,0.00,,,0.00,780,weatherlink.com 1.10,2013-09-05 17:20:00,
2013-09-05 12:35:00,70.8,58.0,30.29,ENE,59,2.0,8.0,65,0.00,,,0.00,788,weatherlink.com 1.10,2013-09-05 17:35:00,
2013-09-05 12:50:00,70.4,58.0,30.28,East,96,6.0,7.0,64,0.00,,,0.00,633,weatherlink.com 1.10,2013-09-05 17:50:00,
2013-09-05 13:05:00,70.2,57.0,30.28,ENE,69,3.0,8.0,64,0.00,,,0.00,88,weatherlink.com 1.10,2013-09-05 18:05:00,
2013-09-05 13:20:00,70.8,58.0,30.28,East,90,0.0,6.0,64,0.00,,,0.00,97,weatherlink.com 1.10,2013-09-05 18:20:00,
2013-09-05 13:35:00,71.4,58.0,30.27,ENE,78,3.0,7.0,63,0.00,,,0.00,793,weatherlink.com 1.10,2013-09-05 18:35:00,
2013-09-05 13:50:00,71.6,57.0,30.27,East,87,2.0,6.0,61,0.00,,,0.00,786,weatherlink.com 1.10,2013-09-05 18:50:00,
2013-09-05 14:05:00,72.1,58.0,30.26,East,85,0.0,5.0,62,0.00,,,0.00,773,weatherlink.com 1.10,2013-09-05 19:05:00,
2013-09-05 14:20:00,72.8,58.0,30.25,East,101,0.0,4.0,60,0.00,,,0.00,761,weatherlink.com 1.10,2013-09-05 19:20:00,
2013-09-05 14:35:00,73.1,58.0,30.25,ENE,59,0.0,5.0,59,0.00,,,0.00,740,weatherlink.com 1.10,2013-09-05 19:35:00,
2013-09-05 14:51:00,73.2,57.0,30.25,NE,42,0.0,5.0,58,0.00,,,0.00,587,weatherlink.com 1.10,2013-09-05 19:51:00,
2013-09-05 15:06:00,73.6,58.0,30.24,WSW,257,0.0,3.0,59,0.00,,,0.00,694,weatherlink.com 1.10,2013-09-05 20:06:00,
2013-09-05 15:21:00,73.8,56.0,30.24,East,96,3.0,4.0,54,0.00,,,0.00,664,weatherlink.com 1.10,2013-09-05 20:21:00,
2013-09-05 15:36:00,74.0,58.0,30.24,East,86,1.0,6.0,57,0.00,,,0.00,635,weatherlink.com 1.10,2013-09-05 20:36:00,
2013-09-05 15:51:00,74.7,58.0,30.24,ENE,72,1.0,6.0,56,0.00,,,0.00,603,weatherlink.com 1.10,2013-09-05 20:51:00,
2013-09-05 16:06:00,74.8,56.0,30.23,East,80,0.0,5.0,53,0.00,,,0.00,564,weatherlink.com 1.10,2013-09-05 21:06:00,
2013-09-05 16:21:00,74.2,57.0,30.24,East,98,0.0,5.0,56,0.00,,,0.00,524,weatherlink.com 1.10,2013-09-05 21:21:00,
2013-09-05 16:36:00,74.9,58.0,30.24,ESE,102,2.0,5.0,55,0.00,,,0.00,483,weatherlink.com 1.10,2013-09-05 21:36:00,
2013-09-05 16:51:00,73.5,57.0,30.24,NE,49,4.0,8.0,57,0.00,,,0.00,441,weatherlink.com 1.10,2013-09-05 21:51:00,
2013-09-05 17:06:00,73.2,57.0,30.23,East,80,2.0,7.0,58,0.00,,,0.00,397,weatherlink.com 1.10,2013-09-05 22:06:00,
2013-09-05 17:21:00,73.1,56.0,30.23,East,101,0.0,3.0,56,0.00,,,0.00,350,weatherlink.com 1.10,2013-09-05 22:21:00,
2013-09-05 17:36:00,72.8,56.0,30.23,ENE,74,4.0,4.0,56,0.00,,,0.00,302,weatherlink.com 1.10,2013-09-05 22:36:00,
2013-09-05 17:51:00,72.3,56.0,30.23,ENE,76,0.0,2.0,56,0.00,,,0.00,257,weatherlink.com 1.10,2013-09-05 22:51:00,
2013-09-05 18:06:00,71.7,55.0,30.23,ESE,113,0.0,3.0,57,0.00,,,0.00,200,weatherlink.com 1.10,2013-09-05 23:06:00,
2013-09-05 18:21:00,70.9,56.0,30.23,ESE,111,0.0,2.0,59,0.00,,,0.00,146,weatherlink.com 1.10,2013-09-05 23:21:00,
2013-09-05 18:36:00,70.0,56.0,30.23,ESE,111,0.0,1.0,61,0.00,,,0.00,90,weatherlink.com 1.10,2013-09-05 23:36:00,
2013-09-05 18:51:00,68.7,55.0,30.23,ESE,111,0.0,1.0,62,0.00,,,0.00,47,weatherlink.com 1.10,2013-09-05 23:51:00,
2013-09-05 19:06:00,67.2,55.0,30.23,ESE,111,0.0,1.0,64,0.00,,,0.00,18,weatherlink.com 1.10,2013-09-06 00:06:00,
2013-09-05 19:21:00,65.3,54.0,30.23,ESE,111,0.0,1.0,66,0.00,,,0.00,0,weatherlink.com 1.10,2013-09-06 00:21:00,
2013-09-05 19:36:00,63.5,52.0,30.23,ESE,111,0.0,1.0,67,0.00,,,0.00,0,weatherlink.com 1.10,2013-09-06 00:36:00,
2013-09-05 19:51:00,62.2,52.0,30.24,ESE,111,0.0,0.0,70,0.00,,,0.00,0,weatherlink.com 1.10,2013-09-06 00:51:00,
2013-09-05 20:06:00,61.1,52.0,30.24,ESE,111,0.0,0.0,72,0.00,,,0.00,0,weatherlink.com 1.10,2013-09-06 01:06:00,
2013-09-05 20:21:00,60.0,52.0,30.25,ESE,111,0.0,0.0,75,0.00,,,0.00,0,weatherlink.com 1.10,2013-09-06 01:21:00,
2013-09-05 20:36:00,58.8,52.0,30.25,ESE,111,0.0,0.0,78,0.00,,,0.00,0,weatherlink.com 1.10,2013-09-06 01:36:00,
2013-09-05 20:51:00,57.7,52.0,30.25,ESE,111,0.0,0.0,80,0.00,,,0.00,0,weatherlink.com 1.10,2013-09-06 01:51:00,
2013-09-05 21:06:00,56.9,51.0,30.25,ESE,111,0.0,0.0,81,0.00,,,0.00,0,weatherlink.com 1.10,2013-09-06 02:06:00,
2013-09-05 21:21:00,56.1,51.0,30.26,ESE,111,0.0,0.0,83,0.00,,,0.00,0,weatherlink.com 1.10,2013-09-06 02:21:00,
2013-09-05 21:36:00,55.3,50.0,30.25,ESE,111,0.0,0.0,83,0.00,,,0.00,0,weatherlink.com 1.10,2013-09-06 02:36:00,
2013-09-05 21:51:00,55.0,51.0,30.25,ESE,111,0.0,0.0,85,0.00,,,0.00,0,weatherlink.com 1.10,2013-09-06 02:51:00,
2013-09-05 22:06:00,53.9,50.0,30.25,ESE,111,0.0,0.0,87,0.00,,,0.00,0,weatherlink.com 1.10,2013-09-06 03:06:00,
2013-09-05 22:21:00,53.2,50.0,30.25,ESE,111,0.0,0.0,87,0.00,,,0.00,0,weatherlink.com 1.10,2013-09-06 03:21:00,
2013-09-05 22:36:00,52.5,49.0,30.25,ESE,111,0.0,0.0,88,0.00,,,0.00,0,weatherlink.com 1.10,2013-09-06 03:36:00,
2013-09-05 22:51:00,52.2,49.0,30.25,ESE,111,0.0,0.0,87,0.00,,,0.00,0,weatherlink.com 1.10,2013-09-06 03:51:00,
2013-09-05 23:06:00,51.5,48.0,30.25,ESE,111,0.0,0.0,88,0.00,,,0.00,0,weatherlink.com 1.10,2013-09-06 04:06:00,
2013-09-05 23:21:00,51.1,48.0,30.24,ESE,111,0.0,0.0,89,0.00,,,0.00,0,weatherlink.com 1.10,2013-09-06 04:21:00,
2013-09-05 23:37:00,51.0,48.0,30.25,ESE,111,0.0,0.0,90,0.00,,,0.00,0,weatherlink.com 1.10,2013-09-06 04:37:00,
2013-09-05 23:52:00,51.0,48.0,30.24,ESE,111,0.0,0.0,90,0.00,,,0.00,0,weatherlink.com 1.10,2013-09-06 04:52:00,